Time;durP1;ratioP1;P1;durP2;ratioP2;P2;SDS_P1;SDS_P2;PMS_P1;PMS_P2;Temp;Humidity;BMP_temperature;BMP_pressure;BME280_temperature;BME280_humidity;BME280_pressure;Samples;Min_cycle;Max_cycle;Signal;HPM_P1;HPM_P2
2023/01/13 00:01:21;;;;;;;0.20;0.20;;;24.50;99.90;;;;;;5067640;28;20523;-80
2023/01/13 00:03:47;;;;;;;0.30;0.30;;;24.70;99.90;;;;;;5053139;28;20027;-80
2023/01/13 00:06:17;;;;;;;0.20;0.20;;;24.80;99.90;;;;;;5056539;28;20040;-78
2023/01/13 00:08:43;;;;;;;0.30;0.30;;;24.90;99.90;;;;;;5058071;28;20028;-79
2023/01/13 00:11:09;;;;;;;0.20;0.20;;;24.80;99.90;;;;;;5054960;28;20378;-77
2023/01/13 00:13:37;;;;;;;0.30;0.30;;;24.80;99.90;;;;;;5072902;28;20100;-71
2023/01/13 00:16:09;;;;;;;0.73;0.73;;;24.80;99.90;;;;;;5073145;28;20389;-69
2023/01/13 00:18:37;;;;;;;0.20;0.20;;;24.90;99.90;;;;;;5073432;28;20027;-68
2023/01/13 00:21:04;;;;;;;0.20;0.20;;;24.90;99.90;;;;;;5072034;28;20047;-68
2023/01/13 00:23:31;;;;;;;1.23;1.23;;;25.20;99.90;;;;;;5071149;28;20024;-68
2023/01/13 00:25:59;;;;;;;0.52;0.50;;;25.30;99.90;;;;;;5072913;28;20016;-67
2023/01/13 00:28:24;;;;;;;0.28;0.28;;;25.40;99.90;;;;;;5072590;28;20044;-65
2023/01/13 00:30:50;;;;;;;0.20;0.20;;;25.60;99.90;;;;;;5071814;28;20393;-66
2023/01/13 00:33:16;;;;;;;0.25;0.25;;;25.40;99.90;;;;;;5055402;28;20029;-66
2023/01/13 00:35:42;;;;;;;1.85;1.75;;;25.50;99.90;;;;;;5051995;28;20066;-65
2023/01/13 00:38:08;;;;;;;0.20;0.20;;;25.60;99.90;;;;;;5052174;28;20374;-64
2023/01/13 00:40:33;;;;;;;0.20;0.20;;;25.40;99.90;;;;;;5052671;28;20099;-64
2023/01/13 00:45:43;;;;;;;0.22;0.22;;;24.90;99.90;;;;;;5052198;28;20424;-65
2023/01/13 00:48:09;;;;;;;4.03;2.58;;;24.90;99.90;;;;;;5055510;28;20028;-64
2023/01/13 00:50:35;;;;;;;0.63;0.63;;;24.70;99.90;;;;;;5054333;28;20462;-65
2023/01/13 00:53:00;;;;;;;0.20;0.20;;;24.80;99.90;;;;;;5065816;28;20025;-65
2023/01/13 00:55:26;;;;;;;0.25;0.25;;;24.70;99.90;;;;;;5071423;28;20103;-64
2023/01/13 00:57:52;;;;;;;0.38;0.38;;;24.70;99.90;;;;;;5071250;28;20036;-65
2023/01/13 01:00:18;;;;;;;0.20;0.20;;;24.60;99.90;;;;;;5072618;28;20580;-65
2023/01/13 01:02:44;;;;;;;2.20;2.10;;;24.40;99.90;;;;;;5060453;28;20021;-66
2023/01/13 01:05:10;;;;;;;0.20;0.20;;;24.20;99.90;;;;;;5063705;28;20517;-64
2023/01/13 01:07:35;;;;;;;0.20;0.20;;;24.10;99.90;;;;;;5052584;28;20433;-64
2023/01/13 01:10:01;;;;;;;0.20;0.20;;;24.10;99.90;;;;;;5066057;28;20024;-66
2023/01/13 01:12:27;;;;;;;0.20;0.20;;;24.00;99.90;;;;;;5065633;28;20545;-66
2023/01/13 01:14:53;;;;;;;3.95;0.77;;;23.90;99.90;;;;;;5066539;28;20409;-65
2023/01/13 01:17:18;;;;;;;8.88;2.08;;;23.80;99.90;;;;;;5072112;28;20154;-65
2023/01/13 01:19:44;;;;;;;0.20;0.20;;;23.70;99.90;;;;;;5062248;28;20119;-65
2023/01/13 01:22:10;;;;;;;0.52;0.52;;;23.50;99.90;;;;;;5062782;28;20028;-65
2023/01/13 01:24:35;;;;;;;8.38;1.40;;;23.30;99.90;;;;;;5066700;28;20032;-65
2023/01/13 01:27:01;;;;;;;1.65;1.27;;;23.00;99.90;;;;;;5071836;28;20032;-65
2023/01/13 01:29:27;;;;;;;0.20;0.20;;;22.60;99.90;;;;;;5071014;28;20031;-66
2023/01/13 01:31:52;;;;;;;0.30;0.30;;;22.30;99.90;;;;;;5070965;28;20574;-65
2023/01/13 01:34:18;;;;;;;0.30;0.30;;;22.00;99.90;;;;;;5062076;28;20353;-65
2023/01/13 01:36:44;;;;;;;0.30;0.30;;;21.80;99.90;;;;;;5054929;28;20155;-66
2023/01/13 01:39:09;;;;;;;0.20;0.20;;;21.50;99.90;;;;;;5066659;28;20046;-65
2023/01/13 01:41:36;;;;;;;0.20;0.20;;;21.40;99.90;;;;;;5064929;28;20025;-65
2023/01/13 01:44:24;;;;;;;0.63;0.63;;;21.20;99.90;;;;;;5071456;28;20196;-65
2023/01/13 01:46:51;;;;;;;1.77;1.67;;;21.10;99.90;;;;;;5071240;28;20036;-65
2023/01/13 01:49:18;;;;;;;0.20;0.20;;;21.10;99.90;;;;;;5071338;28;20393;-65
2023/01/13 01:51:54;;;;;;;0.30;0.30;;;21.00;99.90;;;;;;5066253;28;20431;-65
2023/01/13 01:54:29;;;;;;;3.40;3.08;;;21.00;99.90;;;;;;5071560;28;20031;-66
2023/01/13 01:56:55;;;;;;;0.20;0.20;;;21.00;99.90;;;;;;5071106;28;20426;-65
2023/01/13 01:59:21;;;;;;;0.20;0.20;;;21.00;99.90;;;;;;5071238;28;20024;-65
2023/01/13 02:01:48;;;;;;;0.20;0.20;;;20.90;99.90;;;;;;5071417;28;20024;-65
2023/01/13 02:04:19;;;;;;;15.45;4.35;;;20.90;99.90;;;;;;5071235;28;20161;-65
2023/01/13 02:06:46;;;;;;;9.07;1.45;;;20.90;99.90;;;;;;5068751;28;20069;-65
2023/01/13 02:09:12;;;;;;;14.00;2.17;;;21.10;99.90;;;;;;5064469;28;20039;-64
2023/01/13 02:14:25;;;;;;;9.38;2.97;;;21.10;99.90;;;;;;5071162;28;20070;-64
2023/01/13 02:17:20;;;;;;;12.63;2.63;;;21.10;99.90;;;;;;5069914;28;20040;-64
2023/01/13 02:20:07;;;;;;;14.65;3.40;;;21.20;99.90;;;;;;5028143;28;20436;-65
2023/01/13 02:24:52;;;;;;;14.60;2.60;;;21.40;99.90;;;;;;5052773;28;20029;-64
2023/01/13 02:26:17;;;;;;;16.73;2.47;;;21.40;99.90;;;;;;5005626;28;20076;-64
2023/01/13 02:31:40;;;;;;;19.95;3.30;;;21.60;99.90;;;;;;5051309;28;20025;-64
2023/01/13 02:31:40;;;;;;;24.20;3.00;;;21.60;99.90;;;;;;5060456;28;20520;-64
2023/01/13 02:34:10;;;;;;;20.30;2.60;;;21.50;99.90;;;;;;5069846;28;20029;-64
2023/01/13 02:36:50;;;;;;;21.13;2.30;;;21.40;99.90;;;;;;5052512;28;20040;-65
2023/01/13 02:39:30;;;;;;;21.90;3.55;;;21.20;99.90;;;;;;5064045;28;20094;-64
2023/01/13 02:45:17;;;;;;;18.05;2.63;;;21.10;99.90;;;;;;5066254;28;20052;-64
2023/01/13 02:47:46;;;;;;;15.77;2.75;;;21.10;99.90;;;;;;5058458;28;20032;-64
2023/01/13 02:50:17;;;;;;;13.80;3.60;;;21.10;99.90;;;;;;5070918;28;20060;-65
2023/01/13 02:52:51;;;;;;;21.83;2.83;;;21.10;99.90;;;;;;5057434;28;20398;-63
2023/01/13 02:55:28;;;;;;;21.88;3.65;;;21.20;99.90;;;;;;5070865;28;20265;-64
2023/01/13 02:57:57;;;;;;;21.77;3.40;;;21.30;99.90;;;;;;5067297;28;20220;-64
2023/01/13 03:00:23;;;;;;;25.90;4.35;;;21.40;99.90;;;;;;5050496;28;20013;-62
2023/01/13 03:02:49;;;;;;;30.90;4.78;;;21.50;99.90;;;;;;5050579;28;20060;-63
2023/01/13 03:05:16;;;;;;;21.95;3.90;;;21.50;99.90;;;;;;5050479;28;20474;-63
2023/01/13 03:08:00;;;;;;;22.60;2.85;;;21.40;99.90;;;;;;5050593;28;20036;-64
2023/01/13 03:11:00;;;;;;;40.35;3.53;;;21.40;99.90;;;;;;5066253;28;20032;-63
2023/01/13 03:13:56;;;;;;;18.70;3.50;;;21.30;99.90;;;;;;5044201;28;20075;-64
2023/01/13 03:16:40;;;;;;;28.67;3.78;;;21.30;99.90;;;;;;5054862;28;20029;-63
2023/01/13 03:19:16;;;;;;;18.48;3.45;;;21.20;99.90;;;;;;5050808;28;20025;-64
2023/01/13 03:21:49;;;;;;;19.42;4.25;;;21.30;99.90;;;;;;5052445;28;20035;-64
2023/01/13 03:24:45;;;;;;;19.63;3.30;;;21.10;99.90;;;;;;5054226;28;20051;-62
2023/01/13 03:27:27;;;;;;;11.57;2.92;;;21.10;99.90;;;;;;5054509;28;20102;-62
2023/01/13 03:30:03;;;;;;;22.42;3.33;;;21.20;99.90;;;;;;5052824;28;20036;-63
2023/01/13 03:32:34;;;;;;;20.65;3.67;;;20.90;99.90;;;;;;5052201;28;20029;-63
2023/01/13 03:35:08;;;;;;;22.83;3.17;;;20.90;99.90;;;;;;5065372;28;20029;-63
2023/01/13 03:37:38;;;;;;;37.35;5.63;;;20.90;99.90;;;;;;5059240;28;20029;-62
2023/01/13 03:40:17;;;;;;;22.10;4.03;;;20.80;99.90;;;;;;5061821;28;20027;-62
2023/01/13 03:44:20;;;;;;;15.15;2.53;;;20.80;99.90;;;;;;5073769;28;20134;-63
2023/01/13 03:45:35;;;;;;;21.65;2.97;;;20.70;99.90;;;;;;5072544;28;20120;-63
2023/01/13 03:48:10;;;;;;;12.38;2.58;;;20.60;99.90;;;;;;5064683;28;20170;-63
2023/01/13 03:50:46;;;;;;;16.05;3.10;;;20.50;99.90;;;;;;5071082;28;20035;-64
2023/01/13 03:53:19;;;;;;;23.67;5.13;;;20.40;99.90;;;;;;5073823;28;20025;-62
2023/01/13 03:55:54;;;;;;;22.88;3.15;;;20.40;99.90;;;;;;5073652;28;20029;-64
2023/01/13 03:58:28;;;;;;;19.90;4.18;;;20.30;99.90;;;;;;5073488;28;20020;-63
2023/01/13 04:01:04;;;;;;;30.20;4.55;;;20.10;99.90;;;;;;5063554;28;20028;-63
2023/01/13 04:03:32;;;;;;;18.88;4.43;;;20.00;99.90;;;;;;5065920;28;20028;-63
2023/01/13 04:06:11;;;;;;;14.90;3.25;;;20.00;99.90;;;;;;5067455;28;20036;-62
2023/01/13 04:08:43;;;;;;;13.85;2.75;;;19.90;99.90;;;;;;5056871;28;20025;-63
2023/01/13 04:11:15;;;;;;;23.70;3.92;;;20.00;99.90;;;;;;5053307;28;20021;-63
2023/01/13 04:13:44;;;;;;;23.65;3.47;;;19.90;99.90;;;;;;5053226;28;20064;-63
2023/01/13 04:16:11;;;;;;;23.95;3.63;;;19.80;99.90;;;;;;5054969;28;20115;-63
2023/01/13 04:18:38;;;;;;;23.15;5.15;;;19.90;99.90;;;;;;5072162;28;20025;-62
2023/01/13 04:21:04;;;;;;;28.88;3.33;;;19.80;99.90;;;;;;5065725;28;20555;-63
2023/01/13 04:23:31;;;;;;;22.63;3.75;;;19.90;99.90;;;;;;5052243;28;20063;-63
2023/01/13 04:25:57;;;;;;;23.58;3.47;;;19.80;99.90;;;;;;5058265;28;20044;-63
2023/01/13 04:28:23;;;;;;;19.20;3.50;;;20.00;99.90;;;;;;5072050;28;20082;-64
2023/01/13 04:30:49;;;;;;;34.70;4.75;;;19.80;99.90;;;;;;5072220;28;20476;-63
2023/01/13 04:33:17;;;;;;;22.83;4.70;;;19.80;99.90;;;;;;5062370;28;20040;-64
2023/01/13 04:35:44;;;;;;;26.45;5.05;;;19.60;99.90;;;;;;5052244;28;20079;-64
2023/01/13 04:38:12;;;;;;;16.83;3.95;;;19.50;99.90;;;;;;5066442;28;20024;-64
2023/01/13 04:40:39;;;;;;;16.92;3.58;;;19.50;99.90;;;;;;5059926;28;20029;-64
2023/01/13 04:43:05;;;;;;;27.50;4.45;;;19.40;99.90;;;;;;5051966;28;20441;-63
2023/01/13 04:45:31;;;;;;;24.58;4.40;;;19.20;99.90;;;;;;5052679;28;20112;-63
2023/01/13 04:47:56;;;;;;;22.42;4.43;;;19.10;99.90;;;;;;5055375;28;20021;-63
2023/01/13 04:50:23;;;;;;;30.30;5.05;;;19.00;99.90;;;;;;5055858;28;20068;-62
2023/01/13 04:52:50;;;;;;;20.67;4.15;;;18.90;99.90;;;;;;5071435;28;20120;-63
2023/01/13 04:55:16;;;;;;;28.48;3.92;;;18.70;99.90;;;;;;5073313;28;20020;-63
2023/01/13 04:57:43;;;;;;;21.60;3.42;;;18.40;99.90;;;;;;5064288;28;20036;-65
2023/01/13 05:00:10;;;;;;;24.92;3.50;;;18.10;99.90;;;;;;5057326;28;20043;-62
2023/01/13 05:02:36;;;;;;;17.90;3.25;;;17.70;99.90;;;;;;5074616;28;20089;-63
2023/01/13 05:05:03;;;;;;;20.10;3.13;;;17.40;99.90;;;;;;5072195;28;20465;-63
2023/01/13 05:07:28;;;;;;;23.52;3.72;;;17.10;99.90;;;;;;5072034;28;20115;-63
2023/01/13 05:09:54;;;;;;;19.08;4.50;;;17.10;99.90;;;;;;5072202;28;20062;-63
2023/01/13 05:17:50;;;;;;;21.33;4.18;;;15.80;99.90;;;;;;5052020;28;20481;-64
2023/01/13 05:20:15;;;;;;;23.35;4.47;;;15.60;99.90;;;;;;5052164;28;20108;-61
2023/01/13 05:25:27;;;;;;;20.50;4.18;;;15.30;99.90;;;;;;5051838;28;20573;-63
2023/01/13 05:27:54;;;;;;;26.15;4.90;;;15.10;99.90;;;;;;5062404;28;20470;-64
2023/01/13 05:30:22;;;;;;;22.58;3.67;;;15.10;99.90;;;;;;5070539;28;20023;-64
2023/01/13 05:32:48;;;;;;;27.20;4.30;;;14.90;99.90;;;;;;5070557;28;20432;-64
2023/01/13 05:35:14;;;;;;;20.08;4.22;;;14.80;99.90;;;;;;5070272;28;20016;-63
2023/01/13 05:37:41;;;;;;;17.42;3.33;;;14.70;99.90;;;;;;5054470;28;20029;-62
2023/01/13 05:43:21;;;;;;;24.80;4.85;;;14.30;99.90;;;;;;5071418;28;20124;-63
2023/01/13 05:45:51;;;;;;;24.92;5.35;;;14.20;99.90;;;;;;5067728;28;20086;-63
2023/01/13 05:48:18;;;;;;;16.75;3.88;;;14.20;99.90;;;;;;5051227;28;20536;-64
2023/01/13 05:50:45;;;;;;;29.38;4.18;;;14.00;99.90;;;;;;5052421;28;20119;-64
2023/01/13 05:53:11;;;;;;;16.50;4.55;;;14.00;99.90;;;;;;5060069;28;20021;-63
2023/01/13 05:55:41;;;;;;;25.17;4.50;;;13.70;99.90;;;;;;5071333;28;20030;-63
2023/01/13 05:58:11;;;;;;;27.92;5.40;;;13.50;99.90;;;;;;5071241;28;20021;-63
2023/01/13 06:00:37;;;;;;;15.75;3.38;;;13.40;99.90;;;;;;5071272;28;20024;-64
2023/01/13 06:03:03;;;;;;;26.50;3.40;;;13.40;99.90;;;;;;5071415;28;20377;-64
2023/01/13 06:05:30;;;;;;;18.85;4.45;;;13.20;99.90;;;;;;5052074;28;20029;-63
2023/01/13 06:08:00;;;;;;;25.30;3.53;;;13.30;99.90;;;;;;5050700;28;20113;-64
2023/01/13 06:10:27;;;;;;;27.50;5.35;;;13.10;99.90;;;;;;5051246;28;20069;-64
2023/01/13 06:12:53;;;;;;;21.00;4.18;;;13.10;99.90;;;;;;5051876;28;20529;-62
2023/01/13 06:15:19;;;;;;;18.00;2.95;;;13.00;99.90;;;;;;5065458;28;20040;-63
2023/01/13 06:17:45;;;;;;;19.85;3.35;;;12.90;99.90;;;;;;5051598;28;20027;-63
2023/01/13 06:20:12;;;;;;;19.92;3.95;;;13.00;99.90;;;;;;5053302;28;20029;-64
2023/01/13 06:22:41;;;;;;;16.50;3.17;;;13.00;99.90;;;;;;5059949;28;20350;-64
2023/01/13 06:25:32;;;;;;;17.73;3.63;;;13.10;99.90;;;;;;5070711;28;20028;-64
2023/01/13 06:27:59;;;;;;;16.50;4.18;;;13.20;99.90;;;;;;5069509;28;20450;-64
2023/01/13 06:30:28;;;;;;;14.40;2.40;;;13.30;99.90;;;;;;5070822;28;20017;-64
2023/01/13 06:32:57;;;;;;;21.58;3.13;;;13.10;99.90;;;;;;5070977;28;20107;-64
2023/01/13 06:35:28;;;;;;;21.05;4.40;;;13.10;99.90;;;;;;5061239;28;20064;-64
2023/01/13 06:37:56;;;;;;;14.20;2.70;;;13.00;99.90;;;;;;5065216;28;20075;-64
2023/01/13 06:40:23;;;;;;;18.10;3.05;;;13.20;99.90;;;;;;5067803;28;20051;-64
2023/01/13 06:45:34;;;;;;;15.10;3.03;;;13.10;99.90;;;;;;5069737;28;20118;-65
2023/01/13 06:48:00;;;;;;;19.92;3.05;;;13.20;99.90;;;;;;5065534;28;20469;-64
2023/01/13 06:50:27;;;;;;;15.18;2.83;;;13.20;99.90;;;;;;5058696;28;20083;-65
2023/01/13 06:52:52;;;;;;;18.40;4.07;;;13.20;99.90;;;;;;5070661;28;20119;-64
2023/01/13 06:55:18;;;;;;;23.83;3.88;;;13.20;99.90;;;;;;5054578;28;20104;-65
2023/01/13 06:57:52;;;;;;;12.43;3.45;;;13.10;99.90;;;;;;5066795;28;20027;-66
2023/01/13 07:00:18;;;;;;;15.88;2.78;;;12.90;99.90;;;;;;5059525;28;20037;-65
2023/01/13 07:02:44;;;;;;;14.75;2.75;;;13.00;99.90;;;;;;5054262;28;20075;-65
2023/01/13 07:05:10;;;;;;;23.65;4.35;;;12.80;99.90;;;;;;5054347;28;20620;-64
2023/01/13 07:07:35;;;;;;;20.05;2.85;;;12.90;99.90;;;;;;5054871;28;20480;-65
2023/01/13 07:10:02;;;;;;;15.63;3.13;;;12.90;99.90;;;;;;5072720;28;20497;-65
2023/01/13 07:12:27;;;;;;;19.10;2.88;;;12.90;99.90;;;;;;5074522;28;20048;-64
2023/01/13 07:17:37;;;;;;;11.68;3.38;;;12.80;99.90;;;;;;5072287;28;20063;-65
2023/01/13 07:20:03;;;;;;;8.82;2.70;;;12.80;99.90;;;;;;5072410;28;20029;-67
2023/01/13 07:22:29;;;;;;;17.00;3.03;;;12.70;99.90;;;;;;5071321;28;20027;-64
2023/01/13 07:24:55;;;;;;;13.18;3.95;;;12.70;99.90;;;;;;5072125;28;20028;-65
2023/01/13 07:27:21;;;;;;;21.55;3.83;;;12.80;99.90;;;;;;5067078;28;20409;-66
2023/01/13 07:29:46;;;;;;;17.65;3.35;;;12.60;99.90;;;;;;5052785;28;20017;-64
2023/01/13 07:32:13;;;;;;;10.13;2.63;;;12.60;99.90;;;;;;5073969;28;20809;-67
2023/01/13 07:34:38;;;;;;;20.35;3.88;;;12.70;99.90;;;;;;5072992;28;20021;-66
2023/01/13 07:37:04;;;;;;;13.35;3.05;;;12.60;99.90;;;;;;5074285;28;20484;-66
2023/01/13 07:39:30;;;;;;;16.70;3.45;;;12.60;99.90;;;;;;5058452;28;20436;-64
2023/01/13 07:44:39;;;;;;;20.80;3.65;;;12.60;99.90;;;;;;5054164;28;20070;-65
2023/01/13 07:47:07;;;;;;;18.98;2.83;;;12.50;99.90;;;;;;5069892;28;20032;-65
2023/01/13 07:49:33;;;;;;;18.75;4.38;;;12.50;99.90;;;;;;5065147;28;20555;-65
2023/01/13 07:51:58;;;;;;;18.70;3.22;;;12.60;99.90;;;;;;5060483;28;20067;-64
2023/01/13 07:54:24;;;;;;;18.63;3.20;;;12.50;99.90;;;;;;5062259;28;20391;-64
2023/01/13 07:56:49;;;;;;;12.40;2.90;;;12.50;99.90;;;;;;5073597;28;20025;-64
2023/01/13 07:59:15;;;;;;;15.65;3.90;;;12.50;99.90;;;;;;5059757;28;20388;-65
2023/01/13 08:01:41;;;;;;;13.35;3.10;;;12.40;99.90;;;;;;5073252;28;20035;-66
2023/01/13 08:04:06;;;;;;;26.70;4.85;;;12.40;99.90;;;;;;5071082;28;20035;-65
2023/01/13 08:06:32;;;;;;;24.98;3.55;;;12.40;99.90;;;;;;5071889;28;20036;-65
2023/01/13 08:08:58;;;;;;;16.25;3.83;;;12.40;99.90;;;;;;5072440;28;20021;-65
2023/01/13 08:11:24;;;;;;;22.63;3.70;;;12.30;99.90;;;;;;5073122;28;20029;-66
2023/01/13 08:13:53;;;;;;;13.77;3.20;;;12.30;99.90;;;;;;5072769;28;20048;-65
2023/01/13 08:16:19;;;;;;;18.98;2.92;;;12.30;99.90;;;;;;5072895;28;20033;-66
2023/01/13 08:18:46;;;;;;;17.63;2.78;;;12.30;99.90;;;;;;5072842;28;20045;-66
2023/01/13 08:21:13;;;;;;;19.10;3.80;;;12.20;99.90;;;;;;5066857;28;20036;-66
2023/01/13 08:23:40;;;;;;;12.85;3.25;;;12.30;99.90;;;;;;5063198;28;20024;-65
2023/01/13 08:26:11;;;;;;;12.60;2.90;;;12.20;99.90;;;;;;5061149;28;20048;-65
2023/01/13 08:28:39;;;;;;;20.63;3.33;;;12.20;99.90;;;;;;5070673;28;20021;-65
2023/01/13 08:31:06;;;;;;;18.38;3.15;;;12.30;99.90;;;;;;5056940;28;20504;-66
2023/01/13 08:33:33;;;;;;;16.02;3.40;;;12.90;99.90;;;;;;5068468;28;20037;-65
2023/01/13 08:36:05;;;;;;;11.52;2.78;;;12.20;99.90;;;;;;5073654;28;20029;-65
2023/01/13 08:38:33;;;;;;;18.08;3.80;;;12.10;99.90;;;;;;5073185;28;20024;-65
2023/01/13 08:40:59;;;;;;;13.93;4.40;;;12.10;99.90;;;;;;5072998;28;20078;-65
2023/01/13 08:43:24;;;;;;;47.63;3.90;;;12.20;99.90;;;;;;5072600;28;20025;-65
2023/01/13 08:45:58;;;;;;;21.88;3.55;;;12.30;99.90;;;;;;5072559;28;20481;-65
2023/01/13 08:48:25;;;;;;;29.35;3.35;;;12.10;99.90;;;;;;5072736;28;20427;-65
2023/01/13 08:50:52;;;;;;;20.13;4.88;;;12.00;99.90;;;;;;5072357;28;20047;-65
2023/01/13 08:53:18;;;;;;;19.83;3.47;;;12.10;99.90;;;;;;5072342;28;20377;-65
2023/01/13 08:55:43;;;;;;;31.10;4.78;;;12.10;99.90;;;;;;5072283;28;20032;-65
2023/01/13 08:58:09;;;;;;;19.25;3.33;;;12.10;99.90;;;;;;5072448;28;20021;-65
2023/01/13 09:00:35;;;;;;;19.15;3.47;;;12.20;99.90;;;;;;5072716;28;20025;-65
2023/01/13 09:03:00;;;;;;;16.17;3.70;;;12.10;99.90;;;;;;5071940;28;20021;-65
2023/01/13 09:05:26;;;;;;;19.63;4.03;;;12.20;99.90;;;;;;5072211;28;20032;-65
2023/01/13 09:07:52;;;;;;;19.27;3.63;;;12.10;99.90;;;;;;5072211;28;20028;-65
2023/01/13 09:10:17;;;;;;;24.73;3.90;;;12.20;99.90;;;;;;5072013;28;20033;-65
2023/01/13 09:15:27;;;;;;;20.30;3.88;;;12.30;99.90;;;;;;5071816;28;20059;-64
2023/01/13 09:17:53;;;;;;;19.10;3.38;;;12.20;99.90;;;;;;5054035;28;20381;-65
2023/01/13 09:20:18;;;;;;;21.83;2.85;;;12.20;99.90;;;;;;5071614;28;20025;-65
2023/01/13 09:22:44;;;;;;;17.83;3.50;;;12.20;99.90;;;;;;5071779;28;20031;-65
2023/01/13 09:25:11;;;;;;;15.38;3.33;;;12.20;99.90;;;;;;5071774;28;20024;-65
2023/01/13 09:27:37;;;;;;;15.52;4.43;;;12.20;99.90;;;;;;5071707;28;20024;-65
2023/01/13 09:30:03;;;;;;;29.40;3.38;;;12.20;99.90;;;;;;5071784;28;20066;-65
2023/01/13 09:32:29;;;;;;;17.23;3.15;;;12.20;99.90;;;;;;5071588;28;20029;-65
2023/01/13 09:35:00;;;;;;;21.85;3.58;;;12.10;99.90;;;;;;5071666;28;20075;-65
2023/01/13 09:37:37;;;;;;;18.75;3.35;;;12.10;99.90;;;;;;5071661;28;20070;-64
2023/01/13 09:40:18;;;;;;;14.98;2.90;;;12.20;99.90;;;;;;5071500;28;20052;-66
2023/01/13 09:45:45;;;;;;;22.40;4.28;;;12.10;99.90;;;;;;5071306;28;20039;-65
2023/01/13 09:48:29;;;;;;;30.90;3.75;;;12.10;99.90;;;;;;5071649;28;20034;-66
2023/01/13 09:51:19;;;;;;;17.33;3.88;;;12.10;99.90;;;;;;5061193;28;20044;-65
2023/01/13 09:53:59;;;;;;;28.67;3.40;;;12.10;99.90;;;;;;5055282;28;20520;-65
2023/01/13 09:56:25;;;;;;;24.02;3.38;;;12.10;99.90;;;;;;5053273;28;20684;-65
2023/01/13 09:58:51;;;;;;;17.92;3.88;;;12.10;99.90;;;;;;5062710;28;20037;-64
2023/01/13 10:01:23;;;;;;;24.02;4.93;;;12.10;99.90;;;;;;5063908;28;20112;-65
2023/01/13 10:03:48;;;;;;;19.75;5.18;;;12.10;99.90;;;;;;5061531;28;20103;-64
2023/01/13 10:06:29;;;;;;;19.67;3.35;;;12.00;99.90;;;;;;5064091;28;20079;-64
2023/01/13 10:08:56;;;;;;;25.02;3.03;;;12.00;99.90;;;;;;5055665;28;20089;-64
2023/01/13 10:14:23;;;;;;;20.05;3.88;;;12.10;99.90;;;;;;5065761;28;20563;-65
2023/01/13 10:16:53;;;;;;;20.42;3.33;;;12.10;99.90;;;;;;5051217;28;20079;-65
2023/01/13 10:19:30;;;;;;;29.05;3.85;;;12.10;99.90;;;;;;5058807;28;20092;-64
2023/01/13 10:22:27;;;;;;;16.55;2.70;;;12.00;99.90;;;;;;5053555;28;20071;-64
2023/01/13 10:25:00;;;;;;;17.95;3.22;;;12.00;99.90;;;;;;5053533;28;20045;-65
2023/01/13 10:27:37;;;;;;;18.50;3.20;;;12.00;99.90;;;;;;5064566;28;20480;-65
2023/01/13 10:30:19;;;;;;;15.48;2.95;;;12.10;99.90;;;;;;5057971;28;20028;-65
2023/01/13 10:32:52;;;;;;;12.57;3.55;;;12.10;99.90;;;;;;5064302;28;20489;-65
2023/01/13 10:35:58;;;;;;;22.02;4.20;;;12.20;99.90;;;;;;5049291;28;20029;-65
2023/01/13 10:38:34;;;;;;;29.92;2.92;;;12.20;99.90;;;;;;5054226;28;20024;-65
2023/01/13 10:41:08;;;;;;;21.75;3.53;;;12.30;99.90;;;;;;5051002;28;20047;-65
2023/01/13 10:43:34;;;;;;;26.75;3.70;;;12.40;99.90;;;;;;5054044;28;20025;-65
2023/01/13 10:46:08;;;;;;;13.52;2.75;;;12.60;99.90;;;;;;5057847;28;20044;-66
2023/01/13 10:48:57;;;;;;;23.52;3.38;;;12.50;99.90;;;;;;5055520;28;20024;-65
2023/01/13 10:51:38;;;;;;;8.52;2.30;;;12.50;99.90;;;;;;5056986;28;20275;-65
2023/01/13 10:54:12;;;;;;;13.13;2.47;;;12.40;99.90;;;;;;5069884;28;20028;-65
2023/01/13 10:56:43;;;;;;;17.95;3.00;;;12.40;99.90;;;;;;5059262;28;20017;-67
2023/01/13 10:59:18;;;;;;;22.10;3.23;;;12.30;99.90;;;;;;5060936;28;20624;-65
2023/01/13 11:02:02;;;;;;;16.20;3.20;;;12.30;99.90;;;;;;5051042;28;20040;-65
2023/01/13 11:04:33;;;;;;;12.40;2.50;;;12.20;99.90;;;;;;5053935;28;20116;-65
2023/01/13 11:07:01;;;;;;;12.47;2.80;;;12.30;99.90;;;;;;5067103;28;20055;-65
2023/01/13 11:09:29;;;;;;;18.17;3.10;;;12.30;99.90;;;;;;5060754;28;20048;-66
2023/01/13 11:11:56;;;;;;;18.25;2.92;;;12.30;99.90;;;;;;5064126;28;20028;-65
2023/01/13 11:14:35;;;;;;;13.95;2.85;;;12.30;99.90;;;;;;5053567;28;20123;-66
2023/01/13 11:17:28;;;;;;;17.45;3.25;;;12.30;99.90;;;;;;5057753;28;20013;-66
2023/01/13 11:20:11;;;;;;;18.55;2.92;;;12.10;99.90;;;;;;5050366;28;20021;-66
2023/01/13 11:22:46;;;;;;;17.63;2.28;;;12.00;99.90;;;;;;5051931;28;20028;-66
2023/01/13 11:25:19;;;;;;;15.63;2.92;;;11.90;99.90;;;;;;5050034;28;20028;-66
2023/01/13 11:27:58;;;;;;;10.65;2.90;;;12.00;99.90;;;;;;5055551;28;20027;-66
2023/01/13 11:30:46;;;;;;;16.65;2.90;;;12.10;99.90;;;;;;5071025;28;20024;-66
2023/01/13 11:33:15;;;;;;;15.55;2.60;;;12.10;99.90;;;;;;5070797;28;20497;-65
2023/01/13 11:36:03;;;;;;;11.30;2.47;;;12.10;99.90;;;;;;5070549;28;20024;-65
2023/01/13 11:38:50;;;;;;;10.25;2.05;;;12.10;99.90;;;;;;5058063;28;20040;-66
2023/01/13 11:41:34;;;;;;;17.58;3.05;;;12.10;99.90;;;;;;5064886;28;20430;-66
2023/01/13 11:44:09;;;;;;;12.45;2.50;;;12.20;99.90;;;;;;5054490;28;20031;-66
2023/01/13 11:46:34;;;;;;;18.88;3.60;;;12.00;99.90;;;;;;5060110;28;20389;-66
2023/01/13 11:49:02;;;;;;;20.23;2.95;;;12.00;99.90;;;;;;5054138;28;20470;-64
2023/01/13 11:51:34;;;;;;;11.70;3.20;;;12.10;99.90;;;;;;5053861;28;20027;-66
2023/01/13 11:54:15;;;;;;;25.35;3.63;;;12.20;99.90;;;;;;5054592;28;20021;-66
2023/01/13 11:57:00;;;;;;;23.92;3.72;;;12.30;99.90;;;;;;5053492;28;20029;-65
2023/01/13 11:59:38;;;;;;;24.38;4.05;;;12.20;99.90;;;;;;5064227;28;20071;-65
2023/01/13 12:02:22;;;;;;;13.32;2.30;;;12.10;99.90;;;;;;5073623;28;20482;-65
2023/01/13 12:05:12;;;;;;;22.05;3.28;;;12.20;99.90;;;;;;5073952;28;20072;-65
2023/01/13 12:07:52;;;;;;;14.05;2.42;;;12.20;99.90;;;;;;5073390;28;20032;-65
2023/01/13 12:10:41;;;;;;;11.10;2.78;;;12.20;99.90;;;;;;5073676;28;20024;-66
2023/01/13 12:13:16;;;;;;;14.57;2.72;;;12.20;99.90;;;;;;5057828;28;20025;-65
2023/01/13 12:15:54;;;;;;;13.95;2.28;;;12.10;99.90;;;;;;5060452;28;20040;-62
2023/01/13 12:18:29;;;;;;;13.45;2.78;;;12.00;99.90;;;;;;5073226;28;20545;-62
2023/01/13 12:21:07;;;;;;;15.45;4.47;;;11.70;99.90;;;;;;5073181;28;20365;-62
2023/01/13 12:23:39;;;;;;;20.58;2.75;;;12.70;99.90;;;;;;5073405;28;20024;-62
2023/01/13 12:26:11;;;;;;;;;;;12.70;99.90;;;;;;5071706;28;20033;-62
2023/01/13 12:28:55;;;;;;;14.88;3.45;;;12.70;99.90;;;;;;5073430;28;19944;-62
2023/01/13 12:31:22;;;;;;;8.98;1.90;;;12.80;99.90;;;;;;5072942;28;20024;-62
2023/01/13 12:33:58;;;;;;;12.98;3.55;;;12.80;99.90;;;;;;5073189;28;20104;-61
2023/01/13 12:36:28;;;;;;;16.00;2.80;;;13.00;99.90;;;;;;5073145;28;20078;-61
2023/01/13 12:39:15;;;;;;;12.05;2.50;;;13.00;99.90;;;;;;5070708;28;20027;-63
2023/01/13 12:44:34;;;;;;;22.23;3.45;;;13.60;99.90;;;;;;5060539;28;20124;-62
2023/01/13 12:47:00;;;;;;;16.10;3.22;;;14.00;99.90;;;;;;5072736;28;20048;-62
2023/01/13 12:49:27;;;;;;;18.50;3.45;;;14.10;99.90;;;;;;5065830;28;20028;-63
2023/01/13 12:51:56;;;;;;;10.43;2.47;;;14.20;99.90;;;;;;5053123;28;20056;-63
2023/01/13 12:54:39;;;;;;;12.48;2.40;;;14.50;99.90;;;;;;5051679;28;20021;-63
2023/01/13 12:57:24;;;;;;;12.57;3.33;;;14.40;99.90;;;;;;5053827;28;20060;-63
2023/01/13 12:59:58;;;;;;;27.23;4.45;;;14.40;99.90;;;;;;5056581;28;20029;-63
2023/01/13 13:02:51;;;;;;;17.65;3.10;;;14.40;99.90;;;;;;5072576;28;20024;-64
2023/01/13 13:05:23;;;;;;;17.92;2.72;;;14.50;99.90;;;;;;5053824;28;20064;-62
2023/01/13 13:08:11;;;;;;;19.48;3.33;;;14.70;99.90;;;;;;5062403;28;20481;-64
2023/01/13 13:10:44;;;;;;;14.95;2.80;;;14.50;99.90;;;;;;5046037;28;20509;-62
2023/01/13 13:13:29;;;;;;;;;;;14.40;99.90;;;;;;5059518;28;20028;-62
2023/01/13 13:16:23;;;;;;;24.77;2.97;;;14.30;99.90;;;;;;5070182;28;20430;-64
2023/01/13 13:18:49;;;;;;;13.73;2.70;;;14.30;99.90;;;;;;5053443;28;20044;-62
2023/01/13 13:21:14;;;;;;;24.02;3.53;;;14.00;99.90;;;;;;5059729;28;20420;-62
2023/01/13 13:23:46;;;;;;;17.77;4.03;;;14.30;99.90;;;;;;5062878;28;20049;-64
2023/01/13 13:26:22;;;;;;;14.70;3.08;;;14.20;99.90;;;;;;5065499;28;20047;-62
2023/01/13 13:29:09;;;;;;;16.17;3.05;;;14.30;99.90;;;;;;5065866;28;20055;-62
2023/01/13 13:31:54;;;;;;;18.08;3.15;;;14.10;99.90;;;;;;5051842;28;20032;-62
2023/01/13 13:34:37;;;;;;;17.95;3.35;;;13.70;99.90;;;;;;5052027;28;20530;-62
2023/01/13 13:37:02;;;;;;;15.45;2.75;;;13.60;99.90;;;;;;5058914;28;20048;-63
2023/01/13 13:48:23;;;;;;;12.38;2.17;;;15.00;99.90;;;;;;5066063;28;20043;-63